sensor_id;sensor_type;location;lat;lon;timestamp;temperature;humidity
13436;DHT22;6790;49.520;8.504;2022-10-16T00:01:26;17.30;99.90
13436;DHT22;6790;49.520;8.504;2022-10-16T00:03:55;17.20;99.90
13436;DHT22;6790;49.520;8.504;2022-10-16T00:06:22;17.40;99.90
13436;DHT22;6790;49.520;8.504;2022-10-16T00:08:49;17.30;99.90
13436;DHT22;6790;49.520;8.504;2022-10-16T00:11:18;17.30;99.90
13436;DHT22;6790;49.520;8.504;2022-10-16T00:13:57;17.20;99.90
13436;DHT22;6790;49.520;8.504;2022-10-16T00:16:24;16.90;99.90
13436;DHT22;6790;49.520;8.504;2022-10-16T00:18:49;16.90;99.90
13436;DHT22;6790;49.520;8.504;2022-10-16T00:21:21;16.90;99.90
13436;DHT22;6790;49.520;8.504;2022-10-16T00:23:51;16.90;99.90
13436;DHT22;6790;49.520;8.504;2022-10-16T00:26:19;17.30;99.90
13436;DHT22;6790;49.520;8.504;2022-10-16T00:28:49;16.90;99.90
13436;DHT22;6790;49.520;8.504;2022-10-16T00:31:18;16.90;99.90
13436;DHT22;6790;49.520;8.504;2022-10-16T00:33:45;16.90;99.90
13436;DHT22;6790;49.520;8.504;2022-10-16T00:36:13;16.80;99.90
13436;DHT22;6790;49.520;8.504;2022-10-16T00:38:40;17.20;99.90
13436;DHT22;6790;49.520;8.504;2022-10-16T00:41:09;17.00;99.90
13436;DHT22;6790;49.520;8.504;2022-10-16T00:43:49;17.00;99.90
13436;DHT22;6790;49.520;8.504;2022-10-16T00:46:23;16.70;99.90
13436;DHT22;6790;49.520;8.504;2022-10-16T00:49:10;16.70;99.90
13436;DHT22;6790;49.520;8.504;2022-10-16T00:51:40;17.10;99.90
13436;DHT22;6790;49.520;8.504;2022-10-16T00:54:26;17.20;99.90
13436;DHT22;6790;49.520;8.504;2022-10-16T00:56:54;16.80;99.90
13436;DHT22;6790;49.520;8.504;2022-10-16T00:59:27;16.70;99.90
13436;DHT22;6790;49.520;8.504;2022-10-16T01:01:55;16.80;99.90
13436;DHT22;6790;49.520;8.504;2022-10-16T01:04:22;16.70;99.90
13436;DHT22;6790;49.520;8.504;2022-10-16T01:07:10;16.90;99.90
13436;DHT22;6790;49.520;8.504;2022-10-16T01:10:04;16.90;99.90
13436;DHT22;6790;49.520;8.504;2022-10-16T01:12:54;16.70;99.90
13436;DHT22;6790;49.520;8.504;2022-10-16T01:18:34;16.70;99.90
13436;DHT22;6790;49.520;8.504;2022-10-16T01:21:11;17.10;99.90
13436;DHT22;6790;49.520;8.504;2022-10-16T01:24:19;17.10;99.90
13436;DHT22;6790;49.520;8.504;2022-10-16T01:27:11;16.70;99.90
13436;DHT22;6790;49.520;8.504;2022-10-16T01:35:41;17.20;99.90
13436;DHT22;6790;49.520;8.504;2022-10-16T01:38:19;17.00;99.90
13436;DHT22;6790;49.520;8.504;2022-10-16T01:40:51;17.20;99.90
13436;DHT22;6790;49.520;8.504;2022-10-16T01:43:27;16.70;99.90
13436;DHT22;6790;49.520;8.504;2022-10-16T01:45:56;17.20;99.90
13436;DHT22;6790;49.520;8.504;2022-10-16T01:48:23;17.10;99.90
13436;DHT22;6790;49.520;8.504;2022-10-16T01:51:04;17.20;99.90
13436;DHT22;6790;49.520;8.504;2022-10-16T01:53:32;16.70;99.90
13436;DHT22;6790;49.520;8.504;2022-10-16T01:55:59;17.00;99.90
13436;DHT22;6790;49.520;8.504;2022-10-16T01:58:27;16.60;99.90
13436;DHT22;6790;49.520;8.504;2022-10-16T02:00:56;16.70;99.90
13436;DHT22;6790;49.520;8.504;2022-10-16T02:03:22;17.00;99.90
13436;DHT22;6790;49.520;8.504;2022-10-16T02:05:56;16.60;99.90
13436;DHT22;6790;49.520;8.504;2022-10-16T02:08:24;16.90;99.90
13436;DHT22;6790;49.520;8.504;2022-10-16T02:10:54;16.70;99.90
13436;DHT22;6790;49.520;8.504;2022-10-16T02:13:25;17.00;99.90
13436;DHT22;6790;49.520;8.504;2022-10-16T02:15:52;16.80;99.90
13436;DHT22;6790;49.520;8.504;2022-10-16T02:18:18;16.80;99.90
13436;DHT22;6790;49.520;8.504;2022-10-16T02:26:27;16.60;99.90
13436;DHT22;6790;49.520;8.504;2022-10-16T02:28:59;16.90;99.90
13436;DHT22;6790;49.520;8.504;2022-10-16T02:31:32;16.50;99.90
13436;DHT22;6790;49.520;8.504;2022-10-16T02:34:02;16.50;99.90
13436;DHT22;6790;49.520;8.504;2022-10-16T02:36:31;17.00;99.90
13436;DHT22;6790;49.520;8.504;2022-10-16T02:38:58;16.70;99.90
13436;DHT22;6790;49.520;8.504;2022-10-16T02:41:26;16.90;99.90
13436;DHT22;6790;49.520;8.504;2022-10-16T02:43:52;17.10;99.90
13436;DHT22;6790;49.520;8.504;2022-10-16T02:46:20;16.80;99.90
13436;DHT22;6790;49.520;8.504;2022-10-16T02:48:46;16.80;99.90
13436;DHT22;6790;49.520;8.504;2022-10-16T02:51:11;16.80;99.90
13436;DHT22;6790;49.520;8.504;2022-10-16T02:53:37;17.00;99.90
13436;DHT22;6790;49.520;8.504;2022-10-16T02:56:03;16.60;99.90
13436;DHT22;6790;49.520;8.504;2022-10-16T02:58:29;16.60;99.90
13436;DHT22;6790;49.520;8.504;2022-10-16T03:00:55;16.70;99.90
13436;DHT22;6790;49.520;8.504;2022-10-16T03:03:21;16.90;99.90
13436;DHT22;6790;49.520;8.504;2022-10-16T03:05:46;16.70;99.90
13436;DHT22;6790;49.520;8.504;2022-10-16T03:08:13;17.10;99.90
13436;DHT22;6790;49.520;8.504;2022-10-16T03:10:39;17.10;99.90
13436;DHT22;6790;49.520;8.504;2022-10-16T03:13:04;16.60;99.90
13436;DHT22;6790;49.520;8.504;2022-10-16T03:15:30;17.10;99.90
13436;DHT22;6790;49.520;8.504;2022-10-16T03:17:59;16.60;99.90
13436;DHT22;6790;49.520;8.504;2022-10-16T03:20:25;17.00;99.90
13436;DHT22;6790;49.520;8.504;2022-10-16T03:22:51;16.60;99.90
13436;DHT22;6790;49.520;8.504;2022-10-16T03:25:17;17.10;99.90
13436;DHT22;6790;49.520;8.504;2022-10-16T03:27:43;16.60;99.90
13436;DHT22;6790;49.520;8.504;2022-10-16T03:30:09;16.70;99.90
13436;DHT22;6790;49.520;8.504;2022-10-16T03:32:35;17.10;99.90
13436;DHT22;6790;49.520;8.504;2022-10-16T03:35:00;16.70;99.90
13436;DHT22;6790;49.520;8.504;2022-10-16T03:37:26;17.10;99.90
13436;DHT22;6790;49.520;8.504;2022-10-16T03:39:52;17.10;99.90
13436;DHT22;6790;49.520;8.504;2022-10-16T03:42:18;17.00;99.90
13436;DHT22;6790;49.520;8.504;2022-10-16T03:44:43;17.00;99.90
13436;DHT22;6790;49.520;8.504;2022-10-16T03:47:09;16.70;99.90
13436;DHT22;6790;49.520;8.504;2022-10-16T03:49:35;16.60;99.90
13436;DHT22;6790;49.520;8.504;2022-10-16T03:52:01;16.60;99.90
13436;DHT22;6790;49.520;8.504;2022-10-16T03:54:26;16.60;99.90
13436;DHT22;6790;49.520;8.504;2022-10-16T03:56:52;16.80;99.90
13436;DHT22;6790;49.520;8.504;2022-10-16T03:59:17;17.00;99.90
13436;DHT22;6790;49.520;8.504;2022-10-16T04:01:43;17.00;99.90
13436;DHT22;6790;49.520;8.504;2022-10-16T04:04:09;17.10;99.90
13436;DHT22;6790;49.520;8.504;2022-10-16T04:06:34;17.00;99.90
13436;DHT22;6790;49.520;8.504;2022-10-16T04:09:00;16.90;99.90
13436;DHT22;6790;49.520;8.504;2022-10-16T04:11:26;16.60;99.90
13436;DHT22;6790;49.520;8.504;2022-10-16T04:13:52;17.00;99.90
13436;DHT22;6790;49.520;8.504;2022-10-16T04:16:18;17.00;99.90
13436;DHT22;6790;49.520;8.504;2022-10-16T04:18:44;16.90;99.90
13436;DHT22;6790;49.520;8.504;2022-10-16T04:21:09;16.60;99.90
13436;DHT22;6790;49.520;8.504;2022-10-16T04:23:35;17.00;99.90
13436;DHT22;6790;49.520;8.504;2022-10-16T04:26:01;17.10;99.90
13436;DHT22;6790;49.520;8.504;2022-10-16T04:28:26;16.90;99.90
13436;DHT22;6790;49.520;8.504;2022-10-16T04:30:52;17.00;99.90
13436;DHT22;6790;49.520;8.504;2022-10-16T04:33:18;17.00;99.90
13436;DHT22;6790;49.520;8.504;2022-10-16T04:35:44;16.60;99.90
13436;DHT22;6790;49.520;8.504;2022-10-16T04:38:10;17.00;99.90
13436;DHT22;6790;49.520;8.504;2022-10-16T04:40:35;16.50;99.90
13436;DHT22;6790;49.520;8.504;2022-10-16T04:43:02;16.90;99.90
13436;DHT22;6790;49.520;8.504;2022-10-16T04:45:29;16.70;99.90
13436;DHT22;6790;49.520;8.504;2022-10-16T04:47:58;16.50;99.90
13436;DHT22;6790;49.520;8.504;2022-10-16T04:50:24;16.50;99.90
13436;DHT22;6790;49.520;8.504;2022-10-16T04:52:50;16.70;99.90
13436;DHT22;6790;49.520;8.504;2022-10-16T04:55:16;17.00;99.90
13436;DHT22;6790;49.520;8.504;2022-10-16T04:57:41;16.50;99.90
13436;DHT22;6790;49.520;8.504;2022-10-16T05:00:08;16.70;99.90
13436;DHT22;6790;49.520;8.504;2022-10-16T05:02:34;16.80;99.90
13436;DHT22;6790;49.520;8.504;2022-10-16T05:04:59;16.50;99.90
13436;DHT22;6790;49.520;8.504;2022-10-16T05:07:25;16.90;99.90
13436;DHT22;6790;49.520;8.504;2022-10-16T05:09:51;16.70;99.90
13436;DHT22;6790;49.520;8.504;2022-10-16T05:12:18;16.90;99.90
13436;DHT22;6790;49.520;8.504;2022-10-16T05:14:43;16.70;99.90
13436;DHT22;6790;49.520;8.504;2022-10-16T05:17:09;16.50;99.90
13436;DHT22;6790;49.520;8.504;2022-10-16T05:19:35;16.80;99.90
13436;DHT22;6790;49.520;8.504;2022-10-16T05:22:00;16.70;99.90
13436;DHT22;6790;49.520;8.504;2022-10-16T05:24:26;16.40;99.90
13436;DHT22;6790;49.520;8.504;2022-10-16T05:26:52;16.80;99.90
13436;DHT22;6790;49.520;8.504;2022-10-16T05:29:18;16.40;99.90
13436;DHT22;6790;49.520;8.504;2022-10-16T05:31:43;16.40;99.90
13436;DHT22;6790;49.520;8.504;2022-10-16T05:34:09;16.80;99.90
13436;DHT22;6790;49.520;8.504;2022-10-16T05:36:35;16.40;99.90
13436;DHT22;6790;49.520;8.504;2022-10-16T05:39:01;16.40;99.90
13436;DHT22;6790;49.520;8.504;2022-10-16T05:41:27;16.70;99.90
13436;DHT22;6790;49.520;8.504;2022-10-16T05:43:53;16.80;99.90
13436;DHT22;6790;49.520;8.504;2022-10-16T05:46:19;16.60;99.90
13436;DHT22;6790;49.520;8.504;2022-10-16T05:48:45;16.80;99.90
13436;DHT22;6790;49.520;8.504;2022-10-16T05:51:12;16.70;99.90
13436;DHT22;6790;49.520;8.504;2022-10-16T05:53:40;16.50;99.90
13436;DHT22;6790;49.520;8.504;2022-10-16T05:56:07;16.80;99.90
13436;DHT22;6790;49.520;8.504;2022-10-16T05:58:36;16.50;99.90
13436;DHT22;6790;49.520;8.504;2022-10-16T06:01:05;16.50;99.90
13436;DHT22;6790;49.520;8.504;2022-10-16T06:03:33;16.80;99.90
13436;DHT22;6790;49.520;8.504;2022-10-16T06:05:59;16.50;99.90
13436;DHT22;6790;49.520;8.504;2022-10-16T06:08:43;16.70;99.90
13436;DHT22;6790;49.520;8.504;2022-10-16T06:11:13;16.90;99.90
13436;DHT22;6790;49.520;8.504;2022-10-16T06:13:40;16.50;99.90
13436;DHT22;6790;49.520;8.504;2022-10-16T06:16:11;16.90;99.90
13436;DHT22;6790;49.520;8.504;2022-10-16T06:18:37;16.60;99.90
13436;DHT22;6790;49.520;8.504;2022-10-16T06:21:08;16.60;99.90
13436;DHT22;6790;49.520;8.504;2022-10-16T06:23:35;16.60;99.90
13436;DHT22;6790;49.520;8.504;2022-10-16T06:26:12;16.90;99.90
13436;DHT22;6790;49.520;8.504;2022-10-16T06:28:40;17.00;99.90
13436;DHT22;6790;49.520;8.504;2022-10-16T06:31:08;16.90;99.90
13436;DHT22;6790;49.520;8.504;2022-10-16T06:33:35;16.70;99.90
13436;DHT22;6790;49.520;8.504;2022-10-16T06:38:31;16.60;99.90
13436;DHT22;6790;49.520;8.504;2022-10-16T06:40:56;16.60;99.90
13436;DHT22;6790;49.520;8.504;2022-10-16T06:43:22;16.90;99.90
13436;DHT22;6790;49.520;8.504;2022-10-16T06:45:52;16.60;99.90
13436;DHT22;6790;49.520;8.504;2022-10-16T06:48:19;16.90;99.90
13436;DHT22;6790;49.520;8.504;2022-10-16T06:51:02;16.60;99.90
13436;DHT22;6790;49.520;8.504;2022-10-16T06:53:32;16.90;99.90
13436;DHT22;6790;49.520;8.504;2022-10-16T06:56:16;16.60;99.90
13436;DHT22;6790;49.520;8.504;2022-10-16T06:58:47;17.10;99.90
13436;DHT22;6790;49.520;8.504;2022-10-16T07:01:14;16.70;99.90
13436;DHT22;6790;49.520;8.504;2022-10-16T07:03:42;17.10;99.90
13436;DHT22;6790;49.520;8.504;2022-10-16T07:06:11;17.20;99.90
13436;DHT22;6790;49.520;8.504;2022-10-16T07:08:42;17.10;99.90
13436;DHT22;6790;49.520;8.504;2022-10-16T07:11:16;16.80;99.90
13436;DHT22;6790;49.520;8.504;2022-10-16T07:13:45;17.20;99.90
13436;DHT22;6790;49.520;8.504;2022-10-16T07:16:16;16.90;99.90
13436;DHT22;6790;49.520;8.504;2022-10-16T07:18:44;17.00;99.90
13436;DHT22;6790;49.520;8.504;2022-10-16T07:21:21;16.90;99.90
13436;DHT22;6790;49.520;8.504;2022-10-16T07:23:51;17.30;99.90
13436;DHT22;6790;49.520;8.504;2022-10-16T07:26:17;16.90;99.90
13436;DHT22;6790;49.520;8.504;2022-10-16T07:28:44;17.00;99.90
13436;DHT22;6790;49.520;8.504;2022-10-16T07:31:11;17.40;99.90
13436;DHT22;6790;49.520;8.504;2022-10-16T07:33:40;17.00;99.90
13436;DHT22;6790;49.520;8.504;2022-10-16T07:36:08;17.20;99.90
13436;DHT22;6790;49.520;8.504;2022-10-16T07:38:34;17.10;99.90
13436;DHT22;6790;49.520;8.504;2022-10-16T07:41:04;17.30;99.90
13436;DHT22;6790;49.520;8.504;2022-10-16T07:43:32;17.10;99.90
13436;DHT22;6790;49.520;8.504;2022-10-16T07:45:58;17.10;99.90
13436;DHT22;6790;49.520;8.504;2022-10-16T07:48:27;17.40;99.90
13436;DHT22;6790;49.520;8.504;2022-10-16T07:50:57;17.30;99.90
13436;DHT22;6790;49.520;8.504;2022-10-16T07:53:24;17.10;99.90
13436;DHT22;6790;49.520;8.504;2022-10-16T07:55:50;17.20;99.90
13436;DHT22;6790;49.520;8.504;2022-10-16T07:58:15;17.20;99.90
13436;DHT22;6790;49.520;8.504;2022-10-16T08:00:41;17.20;99.90
13436;DHT22;6790;49.520;8.504;2022-10-16T08:03:08;17.20;99.90
13436;DHT22;6790;49.520;8.504;2022-10-16T08:05:34;17.30;99.90
13436;DHT22;6790;49.520;8.504;2022-10-16T08:08:00;17.40;99.90
13436;DHT22;6790;49.520;8.504;2022-10-16T08:10:28;17.20;99.90
13436;DHT22;6790;49.520;8.504;2022-10-16T08:12:54;17.30;99.90
13436;DHT22;6790;49.520;8.504;2022-10-16T08:15:20;17.60;99.90
13436;DHT22;6790;49.520;8.504;2022-10-16T08:18:03;17.40;99.90
13436;DHT22;6790;49.520;8.504;2022-10-16T08:20:32;17.60;99.90
13436;DHT22;6790;49.520;8.504;2022-10-16T08:22:59;17.40;99.90
13436;DHT22;6790;49.520;8.504;2022-10-16T08:25:25;17.50;99.90
13436;DHT22;6790;49.520;8.504;2022-10-16T08:27:51;17.60;99.90
13436;DHT22;6790;49.520;8.504;2022-10-16T08:30:19;17.30;99.90
13436;DHT22;6790;49.520;8.504;2022-10-16T08:32:45;17.30;99.90
13436;DHT22;6790;49.520;8.504;2022-10-16T08:35:12;17.40;99.90
13436;DHT22;6790;49.520;8.504;2022-10-16T08:37:39;17.30;99.90
13436;DHT22;6790;49.520;8.504;2022-10-16T08:40:07;17.40;99.90
13436;DHT22;6790;49.520;8.504;2022-10-16T08:45:29;17.70;99.90
13436;DHT22;6790;49.520;8.504;2022-10-16T08:56:56;16.90;99.90
13436;DHT22;6790;49.520;8.504;2022-10-16T08:59:23;17.00;99.90
13436;DHT22;6790;49.520;8.504;2022-10-16T09:01:50;17.20;99.90
13436;DHT22;6790;49.520;8.504;2022-10-16T09:15:29;17.30;99.90
13436;DHT22;6790;49.520;8.504;2022-10-16T09:18:10;17.60;99.90
13436;DHT22;6790;49.520;8.504;2022-10-16T09:21:19;17.70;99.90
13436;DHT22;6790;49.520;8.504;2022-10-16T09:23:48;17.60;99.90
13436;DHT22;6790;49.520;8.504;2022-10-16T09:26:16;18.10;99.90
13436;DHT22;6790;49.520;8.504;2022-10-16T09:28:43;18.30;99.90
13436;DHT22;6790;49.520;8.504;2022-10-16T09:31:20;18.20;99.90
13436;DHT22;6790;49.520;8.504;2022-10-16T09:33:53;17.70;99.90
13436;DHT22;6790;49.520;8.504;2022-10-16T09:36:22;18.60;99.90
13436;DHT22;6790;49.520;8.504;2022-10-16T09:38:48;17.90;99.90
13436;DHT22;6790;49.520;8.504;2022-10-16T09:41:16;18.10;99.90
13436;DHT22;6790;49.520;8.504;2022-10-16T09:49:01;18.50;99.90
13436;DHT22;6790;49.520;8.504;2022-10-16T09:51:31;18.30;99.90
13436;DHT22;6790;49.520;8.504;2022-10-16T09:56:37;18.30;99.90
13436;DHT22;6790;49.520;8.504;2022-10-16T09:59:14;18.20;99.90
13436;DHT22;6790;49.520;8.504;2022-10-16T10:01:48;18.60;99.90
13436;DHT22;6790;49.520;8.504;2022-10-16T10:04:19;18.20;99.90
13436;DHT22;6790;49.520;8.504;2022-10-16T10:06:52;18.70;99.90
13436;DHT22;6790;49.520;8.504;2022-10-16T10:09:23;18.30;99.90
13436;DHT22;6790;49.520;8.504;2022-10-16T10:11:58;19.10;99.90
13436;DHT22;6790;49.520;8.504;2022-10-16T10:14:44;19.20;99.90
13436;DHT22;6790;49.520;8.504;2022-10-16T10:17:18;18.80;99.90
13436;DHT22;6790;49.520;8.504;2022-10-16T10:19:54;18.90;99.90
13436;DHT22;6790;49.520;8.504;2022-10-16T10:39:09;19.20;99.90
13436;DHT22;6790;49.520;8.504;2022-10-16T10:50:06;19.20;99.90
13436;DHT22;6790;49.520;8.504;2022-10-16T10:53:04;19.50;99.90
13436;DHT22;6790;49.520;8.504;2022-10-16T10:56:08;19.80;99.90
13436;DHT22;6790;49.520;8.504;2022-10-16T11:05:16;20.20;99.90
13436;DHT22;6790;49.520;8.504;2022-10-16T11:08:00;20.20;99.90
13436;DHT22;6790;49.520;8.504;2022-10-16T11:10:34;20.30;99.90
13436;DHT22;6790;49.520;8.504;2022-10-16T11:13:30;20.40;99.90
13436;DHT22;6790;49.520;8.504;2022-10-16T11:16:01;20.50;99.90
13436;DHT22;6790;49.520;8.504;2022-10-16T11:18:49;20.60;99.90
13436;DHT22;6790;49.520;8.504;2022-10-16T11:21:21;20.70;99.90
13436;DHT22;6790;49.520;8.504;2022-10-16T11:24:05;20.80;99.90
13436;DHT22;6790;49.520;8.504;2022-10-16T11:26:40;20.90;99.90
13436;DHT22;6790;49.520;8.504;2022-10-16T11:29:19;20.80;99.90
13436;DHT22;6790;49.520;8.504;2022-10-16T11:31:53;21.10;99.90
13436;DHT22;6790;49.520;8.504;2022-10-16T11:34:42;21.30;99.90
13436;DHT22;6790;49.520;8.504;2022-10-16T11:37:42;21.20;99.90
13436;DHT22;6790;49.520;8.504;2022-10-16T11:40:31;21.00;99.90
13436;DHT22;6790;49.520;8.504;2022-10-16T11:43:25;20.90;99.90
13436;DHT22;6790;49.520;8.504;2022-10-16T11:45:57;21.00;99.90
13436;DHT22;6790;49.520;8.504;2022-10-16T11:48:47;21.10;99.90
13436;DHT22;6790;49.520;8.504;2022-10-16T11:51:38;21.20;99.90
13436;DHT22;6790;49.520;8.504;2022-10-16T11:54:22;21.00;99.90
13436;DHT22;6790;49.520;8.504;2022-10-16T11:56:55;20.80;99.90
13436;DHT22;6790;49.520;8.504;2022-10-16T11:59:28;20.80;99.90
13436;DHT22;6790;49.520;8.504;2022-10-16T12:05:25;20.70;99.90
13436;DHT22;6790;49.520;8.504;2022-10-16T12:08:11;20.90;99.90
13436;DHT22;6790;49.520;8.504;2022-10-16T12:10:41;20.90;99.90
13436;DHT22;6790;49.520;8.504;2022-10-16T12:13:31;21.00;99.90
13436;DHT22;6790;49.520;8.504;2022-10-16T12:16:23;20.90;99.90
13436;DHT22;6790;49.520;8.504;2022-10-16T12:18:49;20.90;99.90
13436;DHT22;6790;49.520;8.504;2022-10-16T12:21:38;20.80;99.90
13436;DHT22;6790;49.520;8.504;2022-10-16T12:24:04;20.60;99.90
13436;DHT22;6790;49.520;8.504;2022-10-16T12:26:38;20.60;99.90
13436;DHT22;6790;49.520;8.504;2022-10-16T12:29:40;20.60;99.90
13436;DHT22;6790;49.520;8.504;2022-10-16T12:34:53;20.70;99.90
13436;DHT22;6790;49.520;8.504;2022-10-16T12:37:23;20.70;99.90
13436;DHT22;6790;49.520;8.504;2022-10-16T12:39:52;20.80;99.90
13436;DHT22;6790;49.520;8.504;2022-10-16T12:44:53;20.70;99.90
13436;DHT22;6790;49.520;8.504;2022-10-16T12:49:55;20.70;99.90
13436;DHT22;6790;49.520;8.504;2022-10-16T12:52:39;20.80;99.90
13436;DHT22;6790;49.520;8.504;2022-10-16T12:55:16;21.00;99.90
13436;DHT22;6790;49.520;8.504;2022-10-16T12:57:56;21.10;99.90
13436;DHT22;6790;49.520;8.504;2022-10-16T13:00:31;21.10;99.90
13436;DHT22;6790;49.520;8.504;2022-10-16T13:03:39;21.20;99.90
13436;DHT22;6790;49.520;8.504;2022-10-16T13:12:23;21.10;99.90
13436;DHT22;6790;49.520;8.504;2022-10-16T13:23:52;20.60;99.90
13436;DHT22;6790;49.520;8.504;2022-10-16T13:29:02;20.30;99.90
13436;DHT22;6790;49.520;8.504;2022-10-16T13:31:28;20.40;99.90
13436;DHT22;6790;49.520;8.504;2022-10-16T13:33:57;20.50;99.90
13436;DHT22;6790;49.520;8.504;2022-10-16T13:36:50;20.40;99.90
13436;DHT22;6790;49.520;8.504;2022-10-16T13:39:28;20.40;99.90
13436;DHT22;6790;49.520;8.504;2022-10-16T13:42:12;20.40;99.90
13436;DHT22;6790;49.520;8.504;2022-10-16T13:44:47;20.30;99.90
13436;DHT22;6790;49.520;8.504;2022-10-16T13:47:23;20.40;99.90
13436;DHT22;6790;49.520;8.504;2022-10-16T13:50:16;20.30;99.90
13436;DHT22;6790;49.520;8.504;2022-10-16T13:52:43;20.30;99.90
13436;DHT22;6790;49.520;8.504;2022-10-16T13:55:17;20.50;99.90
13436;DHT22;6790;49.520;8.504;2022-10-16T13:57:43;20.60;99.90
13436;DHT22;6790;49.520;8.504;2022-10-16T14:00:26;20.60;99.90
13436;DHT22;6790;49.520;8.504;2022-10-16T14:03:06;20.50;99.90
13436;DHT22;6790;49.520;8.504;2022-10-16T14:05:48;20.60;99.90
13436;DHT22;6790;49.520;8.504;2022-10-16T14:08:14;20.50;99.90
13436;DHT22;6790;49.520;8.504;2022-10-16T14:10:40;20.40;99.90
13436;DHT22;6790;49.520;8.504;2022-10-16T14:13:07;20.30;99.90
13436;DHT22;6790;49.520;8.504;2022-10-16T14:15:35;20.20;99.90
13436;DHT22;6790;49.520;8.504;2022-10-16T14:18:02;20.20;99.90
13436;DHT22;6790;49.520;8.504;2022-10-16T14:20:30;20.10;99.90
13436;DHT22;6790;49.520;8.504;2022-10-16T14:23:17;20.10;99.90
13436;DHT22;6790;49.520;8.504;2022-10-16T14:25:48;20.20;99.90
13436;DHT22;6790;49.520;8.504;2022-10-16T14:28:23;20.20;99.90
13436;DHT22;6790;49.520;8.504;2022-10-16T14:30:57;20.20;99.90
13436;DHT22;6790;49.520;8.504;2022-10-16T14:36:11;20.00;99.90
13436;DHT22;6790;49.520;8.504;2022-10-16T14:38:40;19.90;99.90
13436;DHT22;6790;49.520;8.504;2022-10-16T14:41:08;19.90;99.90
13436;DHT22;6790;49.520;8.504;2022-10-16T14:43:41;20.00;99.90
13436;DHT22;6790;49.520;8.504;2022-10-16T14:46:17;19.90;99.90
13436;DHT22;6790;49.520;8.504;2022-10-16T14:48:47;19.90;99.90
13436;DHT22;6790;49.520;8.504;2022-10-16T14:51:17;19.90;99.90
13436;DHT22;6790;49.520;8.504;2022-10-16T14:53:44;19.80;99.90
13436;DHT22;6790;49.520;8.504;2022-10-16T14:56:24;19.90;99.90
13436;DHT22;6790;49.520;8.504;2022-10-16T14:58:52;20.10;99.90
13436;DHT22;6790;49.520;8.504;2022-10-16T15:01:19;20.20;99.90
13436;DHT22;6790;49.520;8.504;2022-10-16T15:03:45;20.30;99.90
13436;DHT22;6790;49.520;8.504;2022-10-16T15:06:12;20.30;99.90
13436;DHT22;6790;49.520;8.504;2022-10-16T15:08:39;20.30;99.90
13436;DHT22;6790;49.520;8.504;2022-10-16T15:11:09;20.30;99.90
13436;DHT22;6790;49.520;8.504;2022-10-16T15:13:38;20.40;99.90
13436;DHT22;6790;49.520;8.504;2022-10-16T15:16:04;20.40;99.90
13436;DHT22;6790;49.520;8.504;2022-10-16T15:18:32;20.40;99.90
13436;DHT22;6790;49.520;8.504;2022-10-16T15:20:58;20.50;99.90
13436;DHT22;6790;49.520;8.504;2022-10-16T15:23:23;20.40;99.90
13436;DHT22;6790;49.520;8.504;2022-10-16T15:25:52;20.30;99.90
13436;DHT22;6790;49.520;8.504;2022-10-16T15:28:19;20.30;99.90
13436;DHT22;6790;49.520;8.504;2022-10-16T15:30:46;20.20;99.90
13436;DHT22;6790;49.520;8.504;2022-10-16T15:33:21;20.10;99.90
13436;DHT22;6790;49.520;8.504;2022-10-16T15:35:50;20.00;99.90
13436;DHT22;6790;49.520;8.504;2022-10-16T15:38:18;19.90;99.90
13436;DHT22;6790;49.520;8.504;2022-10-16T15:40:46;20.00;99.90
13436;DHT22;6790;49.520;8.504;2022-10-16T15:43:12;20.10;99.90
13436;DHT22;6790;49.520;8.504;2022-10-16T15:45:38;20.10;99.90
13436;DHT22;6790;49.520;8.504;2022-10-16T15:48:04;20.10;99.90
13436;DHT22;6790;49.520;8.504;2022-10-16T15:50:30;20.10;99.90
13436;DHT22;6790;49.520;8.504;2022-10-16T15:52:57;20.00;99.90
13436;DHT22;6790;49.520;8.504;2022-10-16T15:55:23;19.90;99.90
13436;DHT22;6790;49.520;8.504;2022-10-16T15:57:49;19.80;99.90
13436;DHT22;6790;49.520;8.504;2022-10-16T16:00:17;19.70;99.90
13436;DHT22;6790;49.520;8.504;2022-10-16T16:02:50;19.70;99.90
13436;DHT22;6790;49.520;8.504;2022-10-16T16:05:18;19.70;99.90
13436;DHT22;6790;49.520;8.504;2022-10-16T16:07:44;19.60;99.90
13436;DHT22;6790;49.520;8.504;2022-10-16T16:10:11;19.40;99.90
13436;DHT22;6790;49.520;8.504;2022-10-16T16:12:37;19.50;99.90
13436;DHT22;6790;49.520;8.504;2022-10-16T16:15:05;19.40;99.90
13436;DHT22;6790;49.520;8.504;2022-10-16T16:17:32;19.20;99.90
13436;DHT22;6790;49.520;8.504;2022-10-16T16:19:59;19.10;99.90
13436;DHT22;6790;49.520;8.504;2022-10-16T16:22:24;19.00;99.90
13436;DHT22;6790;49.520;8.504;2022-10-16T16:24:50;19.00;99.90
13436;DHT22;6790;49.520;8.504;2022-10-16T16:27:16;18.90;99.90
13436;DHT22;6790;49.520;8.504;2022-10-16T16:29:42;18.70;99.90
13436;DHT22;6790;49.520;8.504;2022-10-16T16:32:08;18.70;99.90
13436;DHT22;6790;49.520;8.504;2022-10-16T16:34:33;18.50;99.90
13436;DHT22;6790;49.520;8.504;2022-10-16T16:36:59;18.60;99.90
13436;DHT22;6790;49.520;8.504;2022-10-16T16:39:25;18.40;99.90
13436;DHT22;6790;49.520;8.504;2022-10-16T16:41:51;18.40;99.90
13436;DHT22;6790;49.520;8.504;2022-10-16T16:44:17;18.30;99.90
13436;DHT22;6790;49.520;8.504;2022-10-16T16:46:44;18.30;99.90
13436;DHT22;6790;49.520;8.504;2022-10-16T16:49:11;18.30;99.90
13436;DHT22;6790;49.520;8.504;2022-10-16T16:51:38;18.20;99.90
13436;DHT22;6790;49.520;8.504;2022-10-16T16:54:04;18.20;99.90
13436;DHT22;6790;49.520;8.504;2022-10-16T16:56:32;18.10;99.90
13436;DHT22;6790;49.520;8.504;2022-10-16T16:58:57;18.20;99.90
13436;DHT22;6790;49.520;8.504;2022-10-16T17:01:25;18.10;99.90
13436;DHT22;6790;49.520;8.504;2022-10-16T17:03:53;17.90;99.90
13436;DHT22;6790;49.520;8.504;2022-10-16T17:06:22;17.90;99.90
13436;DHT22;6790;49.520;8.504;2022-10-16T17:08:52;17.90;99.90
13436;DHT22;6790;49.520;8.504;2022-10-16T17:11:23;17.70;99.90
13436;DHT22;6790;49.520;8.504;2022-10-16T17:13:50;17.70;99.90
13436;DHT22;6790;49.520;8.504;2022-10-16T17:16:17;17.50;99.90
13436;DHT22;6790;49.520;8.504;2022-10-16T17:18:43;17.60;99.90
13436;DHT22;6790;49.520;8.504;2022-10-16T17:21:10;17.40;99.90
13436;DHT22;6790;49.520;8.504;2022-10-16T17:23:36;17.40;99.90
13436;DHT22;6790;49.520;8.504;2022-10-16T17:26:07;17.40;99.90
13436;DHT22;6790;49.520;8.504;2022-10-16T17:28:43;17.40;99.90
13436;DHT22;6790;49.520;8.504;2022-10-16T17:31:10;17.30;99.90
13436;DHT22;6790;49.520;8.504;2022-10-16T17:33:40;17.30;99.90
13436;DHT22;6790;49.520;8.504;2022-10-16T17:36:07;17.10;99.90
13436;DHT22;6790;49.520;8.504;2022-10-16T17:38:34;17.20;99.90
13436;DHT22;6790;49.520;8.504;2022-10-16T17:41:16;17.00;99.90
13436;DHT22;6790;49.520;8.504;2022-10-16T17:43:43;16.90;99.90
13436;DHT22;6790;49.520;8.504;2022-10-16T17:46:10;16.80;99.90
13436;DHT22;6790;49.520;8.504;2022-10-16T17:48:42;17.00;99.90
13436;DHT22;6790;49.520;8.504;2022-10-16T17:51:12;16.80;99.90
13436;DHT22;6790;49.520;8.504;2022-10-16T17:53:38;16.80;99.90
13436;DHT22;6790;49.520;8.504;2022-10-16T17:56:09;16.80;99.90
13436;DHT22;6790;49.520;8.504;2022-10-16T17:58:37;16.70;99.90